sensor_id;sensor_type;location;lat;lon;timestamp;P1;durP1;ratioP1;P2;durP2;ratioP2
21943;SDS011;11136;48.778;9.126;2022-08-11T00:00:33;5.40;;;2.33;;
21943;SDS011;11136;48.778;9.126;2022-08-11T00:03:04;2.15;;;1.88;;
21943;SDS011;11136;48.778;9.126;2022-08-11T00:05:32;4.20;;;1.98;;
21943;SDS011;11136;48.778;9.126;2022-08-11T00:08:08;3.50;;;1.92;;
21943;SDS011;11136;48.778;9.126;2022-08-11T00:10:34;3.20;;;1.70;;
21943;SDS011;11136;48.778;9.126;2022-08-11T00:13:02;3.90;;;1.80;;
21943;SDS011;11136;48.778;9.126;2022-08-11T00:15:40;3.35;;;1.83;;
21943;SDS011;11136;48.778;9.126;2022-08-11T00:18:08;3.42;;;2.05;;
21943;SDS011;11136;48.778;9.126;2022-08-11T00:20:35;2.25;;;1.98;;
21943;SDS011;11136;48.778;9.126;2022-08-11T00:23:11;5.22;;;1.95;;
21943;SDS011;11136;48.778;9.126;2022-08-11T00:25:39;2.15;;;1.80;;
21943;SDS011;11136;48.778;9.126;2022-08-11T00:28:24;2.30;;;1.70;;
21943;SDS011;11136;48.778;9.126;2022-08-11T00:30:56;2.72;;;1.73;;
21943;SDS011;11136;48.778;9.126;2022-08-11T00:33:24;5.03;;;1.98;;
21943;SDS011;11136;48.778;9.126;2022-08-11T00:35:58;2.83;;;1.70;;
21943;SDS011;11136;48.778;9.126;2022-08-11T00:38:28;3.13;;;1.70;;
21943;SDS011;11136;48.778;9.126;2022-08-11T00:41:03;3.88;;;1.85;;
21943;SDS011;11136;48.778;9.126;2022-08-11T00:46:32;2.83;;;1.80;;
21943;SDS011;11136;48.778;9.126;2022-08-11T00:49:15;1.77;;;1.60;;
21943;SDS011;11136;48.778;9.126;2022-08-11T00:52:28;4.03;;;2.00;;
21943;SDS011;11136;48.778;9.126;2022-08-11T00:54:59;1.60;;;1.50;;
21943;SDS011;11136;48.778;9.126;2022-08-11T01:05:37;2.22;;;1.60;;
21943;SDS011;11136;48.778;9.126;2022-08-11T01:11:00;2.55;;;1.50;;
21943;SDS011;11136;48.778;9.126;2022-08-11T01:24:50;4.75;;;2.10;;
21943;SDS011;11136;48.778;9.126;2022-08-11T01:44:08;4.05;;;1.70;;
21943;SDS011;11136;48.778;9.126;2022-08-11T01:47:15;2.15;;;1.83;;
21943;SDS011;11136;48.778;9.126;2022-08-11T01:53:33;3.05;;;1.70;;
21943;SDS011;11136;48.778;9.126;2022-08-11T01:56:08;3.55;;;1.70;;
21943;SDS011;11136;48.778;9.126;2022-08-11T01:59:08;2.67;;;1.70;;
21943;SDS011;11136;48.778;9.126;2022-08-11T02:01:51;3.40;;;1.75;;
21943;SDS011;11136;48.778;9.126;2022-08-11T02:04:34;2.50;;;1.90;;
21943;SDS011;11136;48.778;9.126;2022-08-11T02:18:54;3.47;;;1.90;;
21943;SDS011;11136;48.778;9.126;2022-08-11T02:21:49;2.90;;;1.50;;
21943;SDS011;11136;48.778;9.126;2022-08-11T02:25:30;3.53;;;1.42;;
21943;SDS011;11136;48.778;9.126;2022-08-11T02:27:40;2.80;;;1.80;;
21943;SDS011;11136;48.778;9.126;2022-08-11T02:30:12;4.30;;;2.03;;
21943;SDS011;11136;48.778;9.126;2022-08-11T02:32:57;1.73;;;1.60;;
21943;SDS011;11136;48.778;9.126;2022-08-11T02:35:53;1.92;;;1.50;;
21943;SDS011;11136;48.778;9.126;2022-08-11T02:41:00;3.30;;;2.08;;
21943;SDS011;11136;48.778;9.126;2022-08-11T02:44:20;3.40;;;1.63;;
21943;SDS011;11136;48.778;9.126;2022-08-11T02:47:07;4.30;;;1.70;;
21943;SDS011;11136;48.778;9.126;2022-08-11T02:49:46;3.50;;;1.77;;
21943;SDS011;11136;48.778;9.126;2022-08-11T02:52:24;2.75;;;2.13;;
21943;SDS011;11136;48.778;9.126;2022-08-11T02:57:39;3.35;;;2.05;;
21943;SDS011;11136;48.778;9.126;2022-08-11T03:00:15;3.47;;;1.73;;
21943;SDS011;11136;48.778;9.126;2022-08-11T03:14:32;5.53;;;1.80;;
21943;SDS011;11136;48.778;9.126;2022-08-11T03:17:31;3.10;;;2.28;;
21943;SDS011;11136;48.778;9.126;2022-08-11T03:20:09;3.25;;;1.80;;
21943;SDS011;11136;48.778;9.126;2022-08-11T03:22:56;2.25;;;1.88;;
21943;SDS011;11136;48.778;9.126;2022-08-11T03:28:10;2.30;;;2.08;;
21943;SDS011;11136;48.778;9.126;2022-08-11T03:30:52;3.30;;;2.10;;
21943;SDS011;11136;48.778;9.126;2022-08-11T03:33:40;2.15;;;1.77;;
21943;SDS011;11136;48.778;9.126;2022-08-11T03:42:17;2.10;;;1.90;;
21943;SDS011;11136;48.778;9.126;2022-08-11T03:44:57;2.92;;;2.22;;
21943;SDS011;11136;48.778;9.126;2022-08-11T03:47:46;7.00;;;2.45;;
21943;SDS011;11136;48.778;9.126;2022-08-11T03:53:35;5.50;;;2.50;;
21943;SDS011;11136;48.778;9.126;2022-08-11T03:59:29;3.10;;;1.80;;
21943;SDS011;11136;48.778;9.126;2022-08-11T04:24:34;2.42;;;2.08;;
21943;SDS011;11136;48.778;9.126;2022-08-11T04:27:44;2.42;;;2.10;;
21943;SDS011;11136;48.778;9.126;2022-08-11T04:33:32;4.47;;;2.42;;
21943;SDS011;11136;48.778;9.126;2022-08-11T04:36:34;2.47;;;2.15;;
21943;SDS011;11136;48.778;9.126;2022-08-11T04:42:05;4.63;;;1.88;;
21943;SDS011;11136;48.778;9.126;2022-08-11T04:48:29;3.30;;;2.63;;
21943;SDS011;11136;48.778;9.126;2022-08-11T04:57:50;3.20;;;2.20;;
21943;SDS011;11136;48.778;9.126;2022-08-11T05:00:52;3.30;;;2.10;;
21943;SDS011;11136;48.778;9.126;2022-08-11T05:07:14;5.80;;;2.85;;
21943;SDS011;11136;48.778;9.126;2022-08-11T05:10:22;3.28;;;2.53;;
21943;SDS011;11136;48.778;9.126;2022-08-11T05:12:56;5.35;;;2.65;;
21943;SDS011;11136;48.778;9.126;2022-08-11T05:15:51;5.32;;;2.55;;
21943;SDS011;11136;48.778;9.126;2022-08-11T05:18:44;5.23;;;2.57;;
21943;SDS011;11136;48.778;9.126;2022-08-11T05:21:32;4.40;;;2.80;;
21943;SDS011;11136;48.778;9.126;2022-08-11T05:24:21;4.45;;;2.40;;
21943;SDS011;11136;48.778;9.126;2022-08-11T05:27:08;5.10;;;2.30;;
21943;SDS011;11136;48.778;9.126;2022-08-11T05:32:45;4.07;;;2.75;;
21943;SDS011;11136;48.778;9.126;2022-08-11T05:35:42;5.50;;;2.83;;
21943;SDS011;11136;48.778;9.126;2022-08-11T05:38:12;4.90;;;2.50;;
21943;SDS011;11136;48.778;9.126;2022-08-11T05:41:01;3.58;;;3.17;;
21943;SDS011;11136;48.778;9.126;2022-08-11T05:43:46;4.35;;;2.55;;
21943;SDS011;11136;48.778;9.126;2022-08-11T05:46:41;5.68;;;2.75;;
21943;SDS011;11136;48.778;9.126;2022-08-11T05:49:28;8.48;;;2.88;;
21943;SDS011;11136;48.778;9.126;2022-08-11T05:52:15;4.72;;;2.55;;
21943;SDS011;11136;48.778;9.126;2022-08-11T05:55:05;3.50;;;2.40;;
21943;SDS011;11136;48.778;9.126;2022-08-11T05:58:09;5.75;;;2.88;;
21943;SDS011;11136;48.778;9.126;2022-08-11T06:00:40;3.53;;;2.38;;
21943;SDS011;11136;48.778;9.126;2022-08-11T06:03:07;6.97;;;2.83;;
21943;SDS011;11136;48.778;9.126;2022-08-11T06:05:38;3.55;;;2.60;;
21943;SDS011;11136;48.778;9.126;2022-08-11T06:08:07;4.88;;;2.78;;
21943;SDS011;11136;48.778;9.126;2022-08-11T06:10:38;5.63;;;3.38;;
21943;SDS011;11136;48.778;9.126;2022-08-11T06:13:06;3.08;;;2.50;;
21943;SDS011;11136;48.778;9.126;2022-08-11T06:15:42;9.95;;;2.50;;
21943;SDS011;11136;48.778;9.126;2022-08-11T06:18:10;6.10;;;2.40;;
21943;SDS011;11136;48.778;9.126;2022-08-11T06:20:46;6.57;;;2.58;;
21943;SDS011;11136;48.778;9.126;2022-08-11T06:23:21;3.88;;;3.03;;
21943;SDS011;11136;48.778;9.126;2022-08-11T06:25:49;3.60;;;2.55;;
21943;SDS011;11136;48.778;9.126;2022-08-11T06:28:16;12.23;;;2.78;;
21943;SDS011;11136;48.778;9.126;2022-08-11T06:30:44;6.25;;;2.55;;
21943;SDS011;11136;48.778;9.126;2022-08-11T06:33:28;11.18;;;2.80;;
21943;SDS011;11136;48.778;9.126;2022-08-11T06:38:59;3.50;;;2.58;;
21943;SDS011;11136;48.778;9.126;2022-08-11T06:41:52;6.50;;;2.63;;
21943;SDS011;11136;48.778;9.126;2022-08-11T06:44:28;5.65;;;2.80;;
21943;SDS011;11136;48.778;9.126;2022-08-11T06:47:03;4.88;;;2.55;;
21943;SDS011;11136;48.778;9.126;2022-08-11T06:49:33;4.50;;;2.70;;
21943;SDS011;11136;48.778;9.126;2022-08-11T06:52:27;4.32;;;2.80;;
21943;SDS011;11136;48.778;9.126;2022-08-11T06:54:55;5.72;;;3.00;;
21943;SDS011;11136;48.778;9.126;2022-08-11T06:57:30;6.22;;;2.60;;
21943;SDS011;11136;48.778;9.126;2022-08-11T07:00:19;4.25;;;2.38;;
21943;SDS011;11136;48.778;9.126;2022-08-11T07:02:58;4.88;;;2.63;;
21943;SDS011;11136;48.778;9.126;2022-08-11T07:14:55;4.82;;;2.28;;
21943;SDS011;11136;48.778;9.126;2022-08-11T07:17:44;3.15;;;2.65;;
21943;SDS011;11136;48.778;9.126;2022-08-11T07:20:34;11.07;;;3.15;;
21943;SDS011;11136;48.778;9.126;2022-08-11T07:23:20;3.95;;;2.72;;
21943;SDS011;11136;48.778;9.126;2022-08-11T07:26:05;7.97;;;2.28;;
21943;SDS011;11136;48.778;9.126;2022-08-11T07:28:49;7.72;;;2.42;;
21943;SDS011;11136;48.778;9.126;2022-08-11T07:31:40;3.88;;;2.45;;
21943;SDS011;11136;48.778;9.126;2022-08-11T07:36:49;8.05;;;2.60;;
21943;SDS011;11136;48.778;9.126;2022-08-11T07:39:18;2.95;;;2.35;;
21943;SDS011;11136;48.778;9.126;2022-08-11T07:41:46;6.28;;;2.90;;
21943;SDS011;11136;48.778;9.126;2022-08-11T07:44:14;5.97;;;2.50;;
21943;SDS011;11136;48.778;9.126;2022-08-11T07:46:41;3.88;;;2.65;;
21943;SDS011;11136;48.778;9.126;2022-08-11T07:49:27;6.32;;;2.75;;
21943;SDS011;11136;48.778;9.126;2022-08-11T07:52:14;3.08;;;2.47;;
21943;SDS011;11136;48.778;9.126;2022-08-11T07:55:13;4.60;;;2.50;;
21943;SDS011;11136;48.778;9.126;2022-08-11T07:57:43;3.50;;;2.45;;
21943;SDS011;11136;48.778;9.126;2022-08-11T08:00:29;13.40;;;2.83;;
21943;SDS011;11136;48.778;9.126;2022-08-11T08:03:19;7.00;;;2.75;;
21943;SDS011;11136;48.778;9.126;2022-08-11T08:06:04;6.15;;;2.97;;
21943;SDS011;11136;48.778;9.126;2022-08-11T08:08:49;5.75;;;2.65;;
21943;SDS011;11136;48.778;9.126;2022-08-11T08:11:34;4.85;;;3.10;;
21943;SDS011;11136;48.778;9.126;2022-08-11T08:14:19;5.30;;;2.33;;
21943;SDS011;11136;48.778;9.126;2022-08-11T08:17:05;7.80;;;2.50;;
21943;SDS011;11136;48.778;9.126;2022-08-11T08:19:50;4.72;;;2.40;;
21943;SDS011;11136;48.778;9.126;2022-08-11T08:22:17;3.95;;;2.45;;
21943;SDS011;11136;48.778;9.126;2022-08-11T08:24:45;3.38;;;2.55;;
21943;SDS011;11136;48.778;9.126;2022-08-11T08:27:14;6.13;;;2.67;;
21943;SDS011;11136;48.778;9.126;2022-08-11T08:29:41;4.63;;;2.20;;
21943;SDS011;11136;48.778;9.126;2022-08-11T08:32:27;4.93;;;3.17;;
21943;SDS011;11136;48.778;9.126;2022-08-11T08:34:54;4.43;;;2.42;;
21943;SDS011;11136;48.778;9.126;2022-08-11T08:37:22;2.58;;;1.98;;
21943;SDS011;11136;48.778;9.126;2022-08-11T08:39:49;3.88;;;2.45;;
21943;SDS011;11136;48.778;9.126;2022-08-11T08:42:17;2.60;;;2.40;;
21943;SDS011;11136;48.778;9.126;2022-08-11T08:44:57;3.25;;;2.10;;
21943;SDS011;11136;48.778;9.126;2022-08-11T08:47:29;6.60;;;2.30;;
21943;SDS011;11136;48.778;9.126;2022-08-11T08:49:58;4.93;;;2.42;;
21943;SDS011;11136;48.778;9.126;2022-08-11T08:52:28;3.45;;;2.00;;
21943;SDS011;11136;48.778;9.126;2022-08-11T08:55:00;3.58;;;2.50;;
21943;SDS011;11136;48.778;9.126;2022-08-11T08:57:28;4.10;;;2.35;;
21943;SDS011;11136;48.778;9.126;2022-08-11T09:00:01;3.45;;;2.17;;
21943;SDS011;11136;48.778;9.126;2022-08-11T09:02:29;12.07;;;1.98;;
21943;SDS011;11136;48.778;9.126;2022-08-11T09:04:55;3.70;;;2.30;;
21943;SDS011;11136;48.778;9.126;2022-08-11T09:07:22;4.38;;;2.10;;
21943;SDS011;11136;48.778;9.126;2022-08-11T09:09:53;3.78;;;2.40;;
21943;SDS011;11136;48.778;9.126;2022-08-11T09:12:21;2.92;;;2.15;;
21943;SDS011;11136;48.778;9.126;2022-08-11T09:14:51;4.25;;;1.90;;
21943;SDS011;11136;48.778;9.126;2022-08-11T09:17:37;6.28;;;2.42;;
21943;SDS011;11136;48.778;9.126;2022-08-11T09:20:06;5.78;;;1.95;;
21943;SDS011;11136;48.778;9.126;2022-08-11T09:22:36;5.07;;;1.80;;
21943;SDS011;11136;48.778;9.126;2022-08-11T09:25:27;2.45;;;1.85;;
21943;SDS011;11136;48.778;9.126;2022-08-11T09:30:41;4.78;;;2.35;;
21943;SDS011;11136;48.778;9.126;2022-08-11T09:33:10;1.95;;;1.60;;
21943;SDS011;11136;48.778;9.126;2022-08-11T09:35:39;4.72;;;2.05;;
21943;SDS011;11136;48.778;9.126;2022-08-11T09:38:10;2.25;;;1.70;;
21943;SDS011;11136;48.778;9.126;2022-08-11T09:41:00;3.10;;;1.63;;
21943;SDS011;11136;48.778;9.126;2022-08-11T09:43:29;3.22;;;2.15;;
21943;SDS011;11136;48.778;9.126;2022-08-11T09:46:33;3.25;;;2.10;;
21943;SDS011;11136;48.778;9.126;2022-08-11T09:48:59;10.82;;;2.47;;
21943;SDS011;11136;48.778;9.126;2022-08-11T09:51:28;4.85;;;2.10;;
21943;SDS011;11136;48.778;9.126;2022-08-11T09:53:55;3.65;;;2.30;;
21943;SDS011;11136;48.778;9.126;2022-08-11T09:56:23;3.67;;;2.20;;
21943;SDS011;11136;48.778;9.126;2022-08-11T09:59:08;2.83;;;2.00;;
21943;SDS011;11136;48.778;9.126;2022-08-11T10:01:38;4.25;;;1.98;;
21943;SDS011;11136;48.778;9.126;2022-08-11T10:04:11;4.38;;;1.75;;
21943;SDS011;11136;48.778;9.126;2022-08-11T10:06:39;1.98;;;1.75;;
21943;SDS011;11136;48.778;9.126;2022-08-11T10:09:25;3.35;;;2.33;;
21943;SDS011;11136;48.778;9.126;2022-08-11T10:11:55;2.80;;;1.83;;
21943;SDS011;11136;48.778;9.126;2022-08-11T10:14:22;2.85;;;2.22;;
21943;SDS011;11136;48.778;9.126;2022-08-11T10:17:07;3.25;;;1.98;;
21943;SDS011;11136;48.778;9.126;2022-08-11T10:19:34;2.75;;;1.90;;
21943;SDS011;11136;48.778;9.126;2022-08-11T10:22:02;2.72;;;1.65;;
21943;SDS011;11136;48.778;9.126;2022-08-11T10:24:49;2.88;;;1.85;;
21943;SDS011;11136;48.778;9.126;2022-08-11T10:27:35;11.77;;;2.30;;
21943;SDS011;11136;48.778;9.126;2022-08-11T10:30:05;3.67;;;2.08;;
21943;SDS011;11136;48.778;9.126;2022-08-11T10:32:50;5.63;;;1.70;;
21943;SDS011;11136;48.778;9.126;2022-08-11T10:35:34;4.82;;;1.83;;
21943;SDS011;11136;48.778;9.126;2022-08-11T10:38:01;2.15;;;1.90;;
21943;SDS011;11136;48.778;9.126;2022-08-11T10:40:28;2.30;;;1.80;;
21943;SDS011;11136;48.778;9.126;2022-08-11T10:42:56;3.92;;;2.22;;
21943;SDS011;11136;48.778;9.126;2022-08-11T10:45:31;4.15;;;1.60;;
21943;SDS011;11136;48.778;9.126;2022-08-11T10:48:17;3.50;;;1.90;;
21943;SDS011;11136;48.778;9.126;2022-08-11T10:50:48;7.10;;;2.10;;
21943;SDS011;11136;48.778;9.126;2022-08-11T10:53:34;2.50;;;1.70;;
21943;SDS011;11136;48.778;9.126;2022-08-11T10:56:20;7.40;;;1.75;;
21943;SDS011;11136;48.778;9.126;2022-08-11T10:59:05;4.75;;;1.88;;
21943;SDS011;11136;48.778;9.126;2022-08-11T11:01:34;3.75;;;2.00;;
21943;SDS011;11136;48.778;9.126;2022-08-11T11:04:05;1.98;;;1.73;;
21943;SDS011;11136;48.778;9.126;2022-08-11T11:09:15;3.47;;;1.75;;
21943;SDS011;11136;48.778;9.126;2022-08-11T11:11:58;2.50;;;1.63;;
21943;SDS011;11136;48.778;9.126;2022-08-11T11:14:42;5.13;;;2.22;;
21943;SDS011;11136;48.778;9.126;2022-08-11T11:17:29;3.65;;;1.80;;
21943;SDS011;11136;48.778;9.126;2022-08-11T11:20:19;2.15;;;1.85;;
21943;SDS011;11136;48.778;9.126;2022-08-11T11:22:52;5.38;;;2.45;;
21943;SDS011;11136;48.778;9.126;2022-08-11T11:30:49;3.20;;;2.00;;
21943;SDS011;11136;48.778;9.126;2022-08-11T11:33:22;2.83;;;1.60;;
21943;SDS011;11136;48.778;9.126;2022-08-11T11:36:15;3.17;;;1.70;;
21943;SDS011;11136;48.778;9.126;2022-08-11T11:38:43;3.35;;;1.58;;
21943;SDS011;11136;48.778;9.126;2022-08-11T11:41:09;3.33;;;1.63;;
21943;SDS011;11136;48.778;9.126;2022-08-11T11:43:54;3.28;;;1.77;;
21943;SDS011;11136;48.778;9.126;2022-08-11T11:46:23;5.28;;;2.15;;
21943;SDS011;11136;48.778;9.126;2022-08-11T11:48:54;2.60;;;1.85;;
21943;SDS011;11136;48.778;9.126;2022-08-11T11:51:21;3.45;;;1.83;;
21943;SDS011;11136;48.778;9.126;2022-08-11T11:53:48;4.28;;;1.77;;
21943;SDS011;11136;48.778;9.126;2022-08-11T11:56:14;2.67;;;1.67;;
21943;SDS011;11136;48.778;9.126;2022-08-11T11:58:40;3.28;;;1.70;;
21943;SDS011;11136;48.778;9.126;2022-08-11T12:01:26;2.47;;;1.70;;
21943;SDS011;11136;48.778;9.126;2022-08-11T12:03:53;2.20;;;1.40;;
21943;SDS011;11136;48.778;9.126;2022-08-11T12:06:21;3.75;;;1.75;;
21943;SDS011;11136;48.778;9.126;2022-08-11T12:08:49;6.55;;;1.60;;
21943;SDS011;11136;48.778;9.126;2022-08-11T12:11:18;2.22;;;1.52;;
21943;SDS011;11136;48.778;9.126;2022-08-11T12:14:05;1.98;;;1.50;;
21943;SDS011;11136;48.778;9.126;2022-08-11T12:16:33;2.05;;;1.50;;
21943;SDS011;11136;48.778;9.126;2022-08-11T12:19:01;2.03;;;1.60;;
21943;SDS011;11136;48.778;9.126;2022-08-11T12:21:29;2.53;;;1.75;;
21943;SDS011;11136;48.778;9.126;2022-08-11T12:23:55;3.05;;;1.70;;
21943;SDS011;11136;48.778;9.126;2022-08-11T12:26:42;2.78;;;1.50;;
21943;SDS011;11136;48.778;9.126;2022-08-11T12:29:27;1.83;;;1.60;;
21943;SDS011;11136;48.778;9.126;2022-08-11T12:31:53;1.60;;;1.42;;
21943;SDS011;11136;48.778;9.126;2022-08-11T12:34:19;4.43;;;1.52;;
21943;SDS011;11136;48.778;9.126;2022-08-11T12:36:58;1.67;;;1.42;;
21943;SDS011;11136;48.778;9.126;2022-08-11T12:39:27;3.22;;;1.85;;
21943;SDS011;11136;48.778;9.126;2022-08-11T12:42:17;6.90;;;1.75;;
21943;SDS011;11136;48.778;9.126;2022-08-11T12:45:02;2.78;;;1.67;;
21943;SDS011;11136;48.778;9.126;2022-08-11T12:47:52;2.60;;;1.20;;
21943;SDS011;11136;48.778;9.126;2022-08-11T12:50:46;5.57;;;1.75;;
21943;SDS011;11136;48.778;9.126;2022-08-11T12:53:34;2.45;;;1.77;;
21943;SDS011;11136;48.778;9.126;2022-08-11T12:56:09;1.60;;;1.50;;
21943;SDS011;11136;48.778;9.126;2022-08-11T12:58:54;5.70;;;1.80;;
21943;SDS011;11136;48.778;9.126;2022-08-11T13:01:39;2.10;;;1.90;;
21943;SDS011;11136;48.778;9.126;2022-08-11T13:04:25;4.10;;;1.75;;
21943;SDS011;11136;48.778;9.126;2022-08-11T13:07:11;3.00;;;1.63;;
21943;SDS011;11136;48.778;9.126;2022-08-11T13:09:38;1.42;;;1.30;;
21943;SDS011;11136;48.778;9.126;2022-08-11T13:12:04;2.90;;;1.50;;
21943;SDS011;11136;48.778;9.126;2022-08-11T13:14:49;2.40;;;1.63;;
21943;SDS011;11136;48.778;9.126;2022-08-11T13:17:15;5.18;;;1.92;;
21943;SDS011;11136;48.778;9.126;2022-08-11T13:19:48;2.75;;;1.65;;
21943;SDS011;11136;48.778;9.126;2022-08-11T13:22:19;1.48;;;1.38;;
21943;SDS011;11136;48.778;9.126;2022-08-11T13:24:48;2.80;;;1.58;;
21943;SDS011;11136;48.778;9.126;2022-08-11T13:27:16;4.63;;;1.40;;
21943;SDS011;11136;48.778;9.126;2022-08-11T13:29:42;4.28;;;1.45;;
21943;SDS011;11136;48.778;9.126;2022-08-11T13:32:10;3.22;;;1.40;;
21943;SDS011;11136;48.778;9.126;2022-08-11T13:34:38;2.55;;;1.67;;
21943;SDS011;11136;48.778;9.126;2022-08-11T13:37:06;3.85;;;1.60;;
21943;SDS011;11136;48.778;9.126;2022-08-11T13:39:35;1.30;;;1.20;;
21943;SDS011;11136;48.778;9.126;2022-08-11T13:42:01;5.22;;;1.70;;
21943;SDS011;11136;48.778;9.126;2022-08-11T13:44:29;3.10;;;1.52;;
21943;SDS011;11136;48.778;9.126;2022-08-11T13:47:00;1.83;;;1.50;;
21943;SDS011;11136;48.778;9.126;2022-08-11T13:49:31;1.60;;;1.50;;
21943;SDS011;11136;48.778;9.126;2022-08-11T13:51:59;2.28;;;1.63;;
21943;SDS011;11136;48.778;9.126;2022-08-11T13:54:27;2.47;;;1.50;;
21943;SDS011;11136;48.778;9.126;2022-08-11T13:56:56;3.88;;;1.60;;
21943;SDS011;11136;48.778;9.126;2022-08-11T13:59:25;2.25;;;1.58;;
21943;SDS011;11136;48.778;9.126;2022-08-11T14:01:54;1.48;;;1.38;;
21943;SDS011;11136;48.778;9.126;2022-08-11T14:04:27;2.08;;;1.63;;
21943;SDS011;11136;48.778;9.126;2022-08-11T14:06:57;1.50;;;1.40;;
21943;SDS011;11136;48.778;9.126;2022-08-11T14:09:27;1.63;;;1.35;;
21943;SDS011;11136;48.778;9.126;2022-08-11T14:11:59;2.78;;;1.23;;
21943;SDS011;11136;48.778;9.126;2022-08-11T14:14:46;1.98;;;1.40;;
21943;SDS011;11136;48.778;9.126;2022-08-11T14:17:18;1.65;;;1.55;;
21943;SDS011;11136;48.778;9.126;2022-08-11T14:19:46;3.78;;;1.50;;
21943;SDS011;11136;48.778;9.126;2022-08-11T14:22:15;1.95;;;1.40;;
21943;SDS011;11136;48.778;9.126;2022-08-11T14:24:42;1.40;;;1.30;;
21943;SDS011;11136;48.778;9.126;2022-08-11T14:27:13;1.50;;;1.30;;
21943;SDS011;11136;48.778;9.126;2022-08-11T14:29:41;2.45;;;1.40;;
21943;SDS011;11136;48.778;9.126;2022-08-11T14:32:12;3.45;;;1.70;;
21943;SDS011;11136;48.778;9.126;2022-08-11T14:34:39;1.55;;;1.25;;
21943;SDS011;11136;48.778;9.126;2022-08-11T14:37:11;2.72;;;1.40;;
21943;SDS011;11136;48.778;9.126;2022-08-11T14:39:47;3.33;;;1.70;;
21943;SDS011;11136;48.778;9.126;2022-08-11T14:42:17;1.58;;;1.38;;
21943;SDS011;11136;48.778;9.126;2022-08-11T14:45:04;1.40;;;1.30;;
21943;SDS011;11136;48.778;9.126;2022-08-11T14:47:53;3.03;;;1.58;;
21943;SDS011;11136;48.778;9.126;2022-08-11T14:50:25;2.17;;;1.70;;
21943;SDS011;11136;48.778;9.126;2022-08-11T14:53:00;2.40;;;1.30;;
21943;SDS011;11136;48.778;9.126;2022-08-11T14:55:35;3.00;;;1.40;;
21943;SDS011;11136;48.778;9.126;2022-08-11T14:58:23;1.77;;;1.50;;
21943;SDS011;11136;48.778;9.126;2022-08-11T15:00:51;1.88;;;1.25;;
21943;SDS011;11136;48.778;9.126;2022-08-11T15:03:18;4.80;;;1.77;;
21943;SDS011;11136;48.778;9.126;2022-08-11T15:05:51;4.28;;;1.20;;
21943;SDS011;11136;48.778;9.126;2022-08-11T15:08:21;6.65;;;1.52;;
21943;SDS011;11136;48.778;9.126;2022-08-11T15:11:09;2.20;;;1.55;;
21943;SDS011;11136;48.778;9.126;2022-08-11T15:13:55;4.05;;;1.63;;
21943;SDS011;11136;48.778;9.126;2022-08-11T15:16:23;3.78;;;1.80;;
21943;SDS011;11136;48.778;9.126;2022-08-11T15:19:10;1.95;;;1.30;;
21943;SDS011;11136;48.778;9.126;2022-08-11T15:21:37;3.58;;;1.30;;
21943;SDS011;11136;48.778;9.126;2022-08-11T15:24:22;1.42;;;1.33;;
21943;SDS011;11136;48.778;9.126;2022-08-11T15:26:48;1.85;;;1.38;;
21943;SDS011;11136;48.778;9.126;2022-08-11T15:29:34;1.33;;;1.23;;
21943;SDS011;11136;48.778;9.126;2022-08-11T15:32:21;1.73;;;1.35;;
21943;SDS011;11136;48.778;9.126;2022-08-11T15:35:07;3.03;;;1.90;;
21943;SDS011;11136;48.778;9.126;2022-08-11T15:37:54;6.28;;;2.95;;
21943;SDS011;11136;48.778;9.126;2022-08-11T15:40:26;4.00;;;1.58;;
21943;SDS011;11136;48.778;9.126;2022-08-11T15:46:40;5.55;;;1.65;;
21943;SDS011;11136;48.778;9.126;2022-08-11T15:51:41;2.00;;;1.58;;
21943;SDS011;11136;48.778;9.126;2022-08-11T15:54:15;2.15;;;1.45;;
21943;SDS011;11136;48.778;9.126;2022-08-11T15:56:44;4.55;;;1.67;;
21943;SDS011;11136;48.778;9.126;2022-08-11T15:59:13;1.48;;;1.38;;
21943;SDS011;11136;48.778;9.126;2022-08-11T16:01:59;2.55;;;1.60;;
21943;SDS011;11136;48.778;9.126;2022-08-11T16:05:00;2.58;;;1.63;;
21943;SDS011;11136;48.778;9.126;2022-08-11T16:07:30;4.32;;;1.67;;
21943;SDS011;11136;48.778;9.126;2022-08-11T16:10:05;1.80;;;1.70;;
21943;SDS011;11136;48.778;9.126;2022-08-11T16:12:35;4.18;;;1.75;;
21943;SDS011;11136;48.778;9.126;2022-08-11T16:15:05;3.85;;;1.65;;
21943;SDS011;11136;48.778;9.126;2022-08-11T16:17:53;3.63;;;1.67;;
21943;SDS011;11136;48.778;9.126;2022-08-11T16:20:23;2.97;;;1.60;;
21943;SDS011;11136;48.778;9.126;2022-08-11T16:22:51;3.85;;;2.10;;
21943;SDS011;11136;48.778;9.126;2022-08-11T16:25:21;6.13;;;1.83;;
21943;SDS011;11136;48.778;9.126;2022-08-11T16:27:50;4.18;;;1.70;;
21943;SDS011;11136;48.778;9.126;2022-08-11T16:30:21;2.60;;;1.48;;
21943;SDS011;11136;48.778;9.126;2022-08-11T16:32:47;4.35;;;1.90;;
21943;SDS011;11136;48.778;9.126;2022-08-11T16:35:22;1.80;;;1.60;;
21943;SDS011;11136;48.778;9.126;2022-08-11T16:38:08;1.80;;;1.50;;
21943;SDS011;11136;48.778;9.126;2022-08-11T16:40:54;2.88;;;1.60;;
21943;SDS011;11136;48.778;9.126;2022-08-11T16:43:22;4.05;;;1.42;;
21943;SDS011;11136;48.778;9.126;2022-08-11T16:46:11;5.75;;;1.67;;
21943;SDS011;11136;48.778;9.126;2022-08-11T16:48:57;3.72;;;1.70;;
21943;SDS011;11136;48.778;9.126;2022-08-11T16:51:25;7.82;;;1.50;;
21943;SDS011;11136;48.778;9.126;2022-08-11T16:53:51;2.80;;;1.73;;
21943;SDS011;11136;48.778;9.126;2022-08-11T16:56:21;2.67;;;1.60;;
21943;SDS011;11136;48.778;9.126;2022-08-11T16:58:53;5.75;;;1.58;;
21943;SDS011;11136;48.778;9.126;2022-08-11T17:01:39;4.22;;;1.98;;
21943;SDS011;11136;48.778;9.126;2022-08-11T17:04:08;2.13;;;1.63;;
21943;SDS011;11136;48.778;9.126;2022-08-11T17:06:59;7.82;;;1.75;;
21943;SDS011;11136;48.778;9.126;2022-08-11T17:09:44;1.65;;;1.42;;
21943;SDS011;11136;48.778;9.126;2022-08-11T17:12:30;3.05;;;1.55;;
21943;SDS011;11136;48.778;9.126;2022-08-11T17:15:17;4.28;;;1.50;;
21943;SDS011;11136;48.778;9.126;2022-08-11T17:18:05;3.05;;;1.58;;
21943;SDS011;11136;48.778;9.126;2022-08-11T17:20:34;2.60;;;1.97;;
21943;SDS011;11136;48.778;9.126;2022-08-11T17:23:02;2.00;;;1.52;;
21943;SDS011;11136;48.778;9.126;2022-08-11T17:25:48;3.08;;;2.00;;
21943;SDS011;11136;48.778;9.126;2022-08-11T17:28:14;3.13;;;1.50;;
21943;SDS011;11136;48.778;9.126;2022-08-11T17:30:42;3.10;;;1.75;;
21943;SDS011;11136;48.778;9.126;2022-08-11T17:33:28;2.78;;;1.95;;
21943;SDS011;11136;48.778;9.126;2022-08-11T17:36:14;8.38;;;2.55;;
21943;SDS011;11136;48.778;9.126;2022-08-11T17:38:43;3.13;;;1.67;;
21943;SDS011;11136;48.778;9.126;2022-08-11T17:41:11;5.38;;;1.40;;
21943;SDS011;11136;48.778;9.126;2022-08-11T17:43:55;3.60;;;1.50;;
21943;SDS011;11136;48.778;9.126;2022-08-11T17:46:41;3.17;;;1.65;;
21943;SDS011;11136;48.778;9.126;2022-08-11T17:49:27;3.15;;;1.70;;
21943;SDS011;11136;48.778;9.126;2022-08-11T17:52:01;2.25;;;1.80;;
21943;SDS011;11136;48.778;9.126;2022-08-11T17:54:46;4.70;;;1.48;;
21943;SDS011;11136;48.778;9.126;2022-08-11T17:57:34;3.50;;;1.73;;
21943;SDS011;11136;48.778;9.126;2022-08-11T18:00:21;3.15;;;1.45;;
21943;SDS011;11136;48.778;9.126;2022-08-11T18:02:47;3.53;;;2.05;;
21943;SDS011;11136;48.778;9.126;2022-08-11T18:05:32;2.13;;;1.50;;
21943;SDS011;11136;48.778;9.126;2022-08-11T18:08:00;2.35;;;1.60;;
21943;SDS011;11136;48.778;9.126;2022-08-11T18:10:48;9.05;;;1.60;;
21943;SDS011;11136;48.778;9.126;2022-08-11T18:13:37;5.43;;;1.73;;
21943;SDS011;11136;48.778;9.126;2022-08-11T18:16:24;2.78;;;1.77;;
21943;SDS011;11136;48.778;9.126;2022-08-11T18:19:08;2.20;;;1.77;;
21943;SDS011;11136;48.778;9.126;2022-08-11T18:22:12;2.60;;;1.88;;
21943;SDS011;11136;48.778;9.126;2022-08-11T18:25:02;2.03;;;1.60;;
21943;SDS011;11136;48.778;9.126;2022-08-11T18:27:52;2.30;;;1.55;;
21943;SDS011;11136;48.778;9.126;2022-08-11T18:30:39;3.70;;;1.80;;
21943;SDS011;11136;48.778;9.126;2022-08-11T18:33:26;3.20;;;1.50;;
21943;SDS011;11136;48.778;9.126;2022-08-11T18:36:17;2.40;;;1.60;;